Sada, Spain
Current Conditions -  °F | °C
As of 3:30 PM on Saturday 25 Oct 2014 (Local Time) from LECO Reporting Station
Clear Clear  
Wind Chill: 20°   Ceiling: Unl
Heat Index: 20°   Visibility: 6mi
Dew Point: 14°   Wind: 5mph
Humidity: 68%   Direction: NA
Pressure: 30.12"   Gusts: NA
Location:  43.36°N, 8.26°W
Report Text: LECO 251330Z VRB04KT CAVOK 20/14 Q1020 NOSIG
Loading
Personal Weather Stations






























Interactive Weather Map
Tropical Storm Tracking
New forecast layout! Learn more

10-Day Weather Forecast

Advertisements
Track Severe Weather on mobile